Morse, Minnesota
Current Conditions -  °F | °C
As of 12:33 AM on Wednesday 26 Nov 2014 (Local Time) from KFOZ Reporting Station
Light Snow Light Snow  
Wind Chill: 19°   Ceiling: 2300
Heat Index: 19°   Visibility: 10mi
Dew Point: 10°   Wind: 0mph
Humidity: 68%   Direction: NA
Pressure: 30.05"   Gusts: NA
Location:  47.4603°N, 94.029°W
Report Text: KFOZ 260633Z AUTO 00000KT 10SM -SN BKN023 OVC032 M07/M12 A3005 RMK AO2
Loading
Personal Weather Stations






























Interactive Weather Map New forecast layout! Learn more

10-Day Weather Forecast

Advertisements
Track Severe Weather on mobile